Radiance Of The Seas — C6SE7 — position and weather

sailwx.info

Track history (hours):
 
Tides and Currents Weather Stations Pressure Air Temp Water Temp Dewpoint Dewpoint Depression Visibility Wind Speed Wind Dir Waves Ship Positions

Radiance Of The Seas

Operator: Royal Caribbean Cruises Ltd

Last reported at 2018-Apr-17 11:17 UTC. Time now 2018-Apr-20 14:04 UTC.
Position S 34°00' E 151°50'.

Type: Passenger vessel. MMSI: 311319000.

Date/timePositionNaut miles runAvg speedWind from/ knotsBaromVisibWave heightAir tempDewpointWater temp
2018-Apr-17 11:17S 34°00' E 151°50'518.4
2018-Apr-17 11:00S 33°59' E 151°45'918.4
2018-Apr-17 10:30S 33°55' E 151°34'918.4
2018-Apr-17 10:00S 33°52' E 151°24'612.2
2018-Apr-17 09:30S 33°50' E 151°17'4 7.8
2018-Apr-17 09:00S 33°51' E 151°13'0 0.0
2018-Apr-16 20:12S 33°52' E 151°13'0 1.2
2018-Apr-16 20:00S 33°51' E 151°13'4 7.7
2018-Apr-16 19:31S 33°50' E 151°17'612.2
2018-Apr-16 19:00S 33°50' E 151°24'4 7.2
2018-Apr-16 18:30S 33°51' E 151°28'4 7.2
2018-Apr-16 18:00S 33°51' E 151°33'4 6.9
2018-Apr-16 17:30S 33°52' E 151°37'4 7.2
2018-Apr-16 17:00S 33°52' E 151°41'4 7.9
2018-Apr-16 16:30S 33°53' E 151°46'3 6.4
2018-Apr-16 16:00S 33°51' E 151°48'3 6.9
2018-Apr-16 15:30S 33°47' E 151°49'3 6.3
2018-Apr-16 15:00S 33°44' E 151°50'3 6.5
2018-Apr-16 14:30S 33°41' E 151°51'4 6.9
2018-Apr-16 13:57S 33°37' E 151°52'3 7.1
2018-Apr-16 13:30S 33°34' E 151°53'4 7.0
2018-Apr-16 13:00S 33°31' E 151°54'15 6.6
2018-Apr-16 10:43S 33°19' E 151°44'4 0.3
2018-Apr-15 19:12S 33°17' E 151°40'0 0.3
2018-Apr-15 19:00S 33°17' E 151°40'0 0.1
2018-Apr-15 18:30S 33°17' E 151°40'0 0.0
2018-Apr-15 17:45S 33°17' E 151°40'12 0.6
2018-Apr-14 20:28S 33°15' E 151°54'43 7.6
2018-Apr-14 14:45S 33°57' E 152°06'622.4
2018-Apr-14 14:29S 33°51' E 152°05'3014.8
2018-Apr-14 12:26S 34°16' E 151°46'921.3
2018-Apr-14 12:00S 34°07' E 151°43'1223.1
2018-Apr-14 11:30S 33°56' E 151°43'1223.4
2018-Apr-14 11:01S 33°44' E 151°43'612.4
2018-Apr-14 10:30S 33°38' E 151°44'1622.9
2018-Apr-14 09:47S 33°23' E 151°51'518.4
2018-Apr-14 09:30S 33°18' E 151°53'510.0
2018-Apr-14 09:00S 33°13' E 151°56'5 9.6
2018-Apr-14 08:30S 33°09' E 151°58'4 7.6
2018-Apr-14 08:00S 33°05' E 151°56'12 9.1
2018-Apr-14 06:43S 32°55' E 151°49'2 7.5
2018-Apr-14 06:29S 32°55' E 151°47'1 1.3
2018-Apr-14 05:58S 32°55' E 151°46'0 0.0
2018-Apr-14 05:25S 32°55' E 151°46'0 0.0
2018-Apr-14 04:58S 32°55' E 151°46'0 0.0
2018-Apr-14 04:28S 32°55' E 151°46'0 0.0
2018-Apr-14 03:58S 32°55' E 151°46'0 0.0
2018-Apr-14 03:28S 32°55' E 151°46'0 0.0
2018-Apr-14 02:55S 32°55' E 151°46'0 0.0
2018-Apr-14 02:28S 32°55' E 151°46'0 0.0
2018-Apr-14 01:58S 32°55' E 151°46'0 0.0
2018-Apr-14 01:28S 32°55' E 151°46'0 0.0
2018-Apr-14 00:58S 32°55' E 151°46'0 0.0
2018-Apr-14 00:28S 32°55' E 151°46'0 0.0
2018-Apr-13 23:58S 32°55' E 151°46'0 0.0
2018-Apr-13 23:28S 32°55' E 151°46'0 0.0
2018-Apr-13 22:58S 32°55' E 151°46'0 0.0
2018-Apr-13 22:25S 32°55' E 151°46'0 0.0
2018-Apr-13 21:58S 32°55' E 151°46'0 0.0
2018-Apr-13 21:28S 32°55' E 151°46'0 0.0
2018-Apr-13 20:58S 32°55' E 151°46'0 0.0
2018-Apr-13 20:28S 32°55' E 151°46'0 0.0
2018-Apr-13 19:58S 32°55' E 151°46'0 0.0
2018-Apr-13 19:28S 32°55' E 151°46'0 0.0
2018-Apr-13 18:58S 32°55' E 151°46'0 0.0
2018-Apr-13 18:28S 32°55' E 151°46'0 0.0
2018-Apr-13 17:55S 32°55' E 151°46'0 0.0
2018-Apr-13 17:28S 32°55' E 151°46'0 0.0
2018-Apr-13 16:58S 32°55' E 151°46'0 0.0
2018-Apr-13 16:28S 32°55' E 151°46'0 0.0
2018-Apr-13 15:58S 32°55' E 151°46'0 0.0
2018-Apr-13 15:28S 32°55' E 151°46'0 0.0
2018-Apr-13 14:58S 32°55' E 151°46'0 0.0
2018-Apr-13 14:28S 32°55' E 151°46'0 0.0
2018-Apr-13 13:58S 32°55' E 151°46'0 0.0
2018-Apr-13 13:28S 32°55' E 151°46'0 0.0
2018-Apr-13 12:58S 32°55' E 151°46'0 0.0
2018-Apr-13 12:28S 32°55' E 151°46'0 0.0
2018-Apr-13 11:58S 32°55' E 151°46'0 0.0
2018-Apr-13 11:28S 32°55' E 151°46'0 0.0
2018-Apr-13 10:58S 32°55' E 151°46'0 0.0
2018-Apr-13 10:28S 32°55' E 151°46'0 0.0
2018-Apr-13 09:58S 32°55' E 151°46'0 0.0
2018-Apr-13 09:25S 32°55' E 151°46'0 0.0
2018-Apr-13 08:58S 32°55' E 151°46'0 0.0
2018-Apr-13 08:28S 32°55' E 151°46'0 0.0
2018-Apr-13 07:58S 32°55' E 151°46'0 0.0
2018-Apr-13 07:28S 32°55' E 151°46'0 0.0
2018-Apr-13 06:58S 32°55' E 151°46'0 0.0
2018-Apr-13 06:28S 32°55' E 151°46'0 0.0
2018-Apr-13 05:58S 32°55' E 151°46'0 0.0
2018-Apr-13 05:28S 32°55' E 151°46'0 0.0
2018-Apr-13 04:58S 32°55' E 151°46'0 0.0
2018-Apr-13 04:28S 32°55' E 151°46'0 0.0
2018-Apr-13 03:58S 32°55' E 151°46'0 0.0
2018-Apr-13 03:28S 32°55' E 151°46'0 0.0
2018-Apr-13 02:58S 32°55' E 151°46'0 0.0
2018-Apr-13 02:28S 32°55' E 151°46'0 0.0
2018-Apr-13 01:58S 32°55' E 151°46'0 0.0
2018-Apr-13 01:28S 32°55' E 151°46'0 0.0
2018-Apr-13 00:58S 32°55' E 151°46'0 0.0
2018-Apr-13 00:28S 32°55' E 151°46'0 0.0
2018-Apr-12 23:58S 32°55' E 151°46'0 0.0
2018-Apr-12 23:28S 32°55' E 151°46'0 0.0
2018-Apr-12 22:58S 32°55' E 151°46'0 0.0
2018-Apr-12 22:28S 32°55' E 151°46'0 0.0
2018-Apr-12 21:58S 32°55' E 151°46'0 0.0
2018-Apr-12 21:28S 32°55' E 151°46'0 0.0
2018-Apr-12 20:58S 32°55' E 151°46'0 0.0
2018-Apr-12 20:28S 32°55' E 151°46'0 0.0
2018-Apr-12 19:58S 32°55' E 151°46'0 0.0
2018-Apr-12 19:28S 32°55' E 151°46'0 0.0
2018-Apr-12 18:58S 32°55' E 151°46'0 0.0
2018-Apr-12 18:28S 32°55' E 151°46'0 0.0
2018-Apr-12 17:58S 32°55' E 151°46'0 0.0
2018-Apr-12 17:28S 32°55' E 151°46'0 0.0
2018-Apr-12 16:58S 32°55' E 151°46'0 0.0
2018-Apr-12 16:25S 32°55' E 151°46'0 0.0
2018-Apr-12 15:58S 32°55' E 151°46'0 0.0
2018-Apr-12 15:28S 32°55' E 151°46'0 0.0
2018-Apr-12 14:58S 32°55' E 151°46'0 0.0
2018-Apr-12 14:28S 32°55' E 151°46'0 0.0
2018-Apr-12 13:58S 32°55' E 151°46'0 0.0
2018-Apr-12 13:28S 32°55' E 151°46'0 0.0
2018-Apr-12 12:55S 32°55' E 151°46'0 0.0
2018-Apr-12 12:28S 32°55' E 151°46'0 0.0
2018-Apr-12 11:58S 32°55' E 151°46'0 0.0
2018-Apr-12 11:28S 32°55' E 151°46'0 0.0
2018-Apr-12 10:58S 32°55' E 151°46'0 0.0
2018-Apr-12 10:28S 32°55' E 151°46'0 0.0
2018-Apr-12 09:58S 32°55' E 151°46'0 0.0
2018-Apr-12 09:28S 32°55' E 151°46'0 0.0
2018-Apr-12 08:58S 32°55' E 151°46'0 0.0
2018-Apr-12 08:28S 32°55' E 151°46'0 0.0
2018-Apr-12 07:58S 32°55' E 151°46'0 0.0
2018-Apr-12 07:28S 32°55' E 151°46'0 0.0
2018-Apr-12 06:58S 32°55' E 151°46'0 0.0
2018-Apr-12 06:28S 32°55' E 151°46'0 0.0
2018-Apr-12 05:58S 32°55' E 151°46'0 0.0
2018-Apr-12 05:28S 32°55' E 151°46'0 0.0
2018-Apr-12 04:58S 32°55' E 151°46'0 0.0
2018-Apr-12 04:28S 32°55' E 151°46'0 0.0
2018-Apr-12 03:55S 32°55' E 151°46'0 0.0
2018-Apr-12 03:28S 32°55' E 151°46'0 0.0
2018-Apr-12 02:58S 32°55' E 151°46'0 0.0
2018-Apr-12 02:28S 32°55' E 151°46'0 0.0
2018-Apr-12 01:58S 32°55' E 151°46'0 0.0
2018-Apr-12 01:28S 32°55' E 151°46'0 0.0
2018-Apr-12 00:55S 32°55' E 151°46'0 0.0
2018-Apr-12 00:28S 32°55' E 151°46'0 0.0
2018-Apr-11 23:58S 32°55' E 151°46'0 0.0
2018-Apr-11 23:28S 32°55' E 151°46'0 0.0
2018-Apr-11 22:58S 32°55' E 151°46'0 0.0
2018-Apr-11 22:25S 32°55' E 151°46'0 0.0
2018-Apr-11 21:58S 32°55' E 151°46'0 0.0
2018-Apr-11 21:28S 32°55' E 151°46'0 0.0
2018-Apr-11 20:58S 32°55' E 151°46'0 0.0
2018-Apr-11 20:28S 32°55' E 151°46'0 0.0
2018-Apr-11 19:58S 32°55' E 151°46'0 0.0
2018-Apr-11 19:28S 32°55' E 151°46'0 0.0
2018-Apr-11 18:58S 32°55' E 151°46'0 0.0
2018-Apr-11 18:28S 32°55' E 151°46'0 0.0
2018-Apr-11 17:58S 32°55' E 151°46'0 0.0
2018-Apr-11 17:28S 32°55' E 151°46'0 0.0
2018-Apr-11 16:58S 32°55' E 151°46'0 0.0
2018-Apr-11 16:28S 32°55' E 151°46'0 0.0
2018-Apr-11 15:58S 32°55' E 151°46'0 0.0
2018-Apr-11 15:28S 32°55' E 151°46'0 0.0
2018-Apr-11 14:58S 32°55' E 151°46'0 0.0
2018-Apr-11 14:28S 32°55' E 151°46'0 0.0
2018-Apr-11 13:55S 32°55' E 151°46'0 0.0
2018-Apr-11 13:28S 32°55' E 151°46'0 0.0
2018-Apr-11 12:58S 32°55' E 151°46'0 0.0
2018-Apr-11 12:28S 32°55' E 151°46'0 0.0
2018-Apr-11 11:58S 32°55' E 151°46'0 0.0
2018-Apr-11 11:28S 32°55' E 151°46'0 0.0
2018-Apr-11 10:58S 32°55' E 151°46'0 0.0
2018-Apr-11 10:28S 32°55' E 151°46'0 0.0
2018-Apr-11 09:58S 32°55' E 151°46'0 0.0
2018-Apr-11 09:28S 32°55' E 151°46'0 0.0
2018-Apr-11 08:58S 32°55' E 151°46'0 0.0
2018-Apr-11 08:25S 32°55' E 151°46'0 0.0
2018-Apr-11 07:46S 32°55' E 151°46'0 0.0
2018-Apr-11 07:25S 32°55' E 151°46'0 0.0
2018-Apr-11 06:55S 32°55' E 151°46'0 0.0
2018-Apr-11 06:25S 32°55' E 151°46'0 0.0
2018-Apr-11 05:55S 32°55' E 151°46'0 0.0
2018-Apr-11 05:19S 32°55' E 151°46'0 0.0
2018-Apr-11 04:58S 32°55' E 151°46'0 0.0
2018-Apr-11 04:28S 32°55' E 151°46'0 0.0
2018-Apr-11 03:55S 32°55' E 151°46'0 0.0
2018-Apr-11 03:25S 32°55' E 151°46'0 0.0
2018-Apr-11 02:58S 32°55' E 151°46'0 0.0
2018-Apr-11 02:25S 32°55' E 151°46'0 0.0
2018-Apr-11 01:58S 32°55' E 151°46'0 0.0
2018-Apr-11 01:25S 32°55' E 151°46'0 0.0
2018-Apr-11 00:55S 32°55' E 151°46'0 0.0
2018-Apr-11 00:25S 32°55' E 151°46'0 0.0
2018-Apr-10 23:55S 32°55' E 151°46'0 0.0
2018-Apr-10 23:25S 32°55' E 151°46'0 0.0
2018-Apr-10 22:55S 32°55' E 151°46'0 0.0
2018-Apr-10 22:16S 32°55' E 151°46'0 0.0
2018-Apr-10 21:58S 32°55' E 151°46'0 0.0
2018-Apr-10 21:25S 32°55' E 151°46'0 0.0
2018-Apr-10 20:55S 32°55' E 151°46'0 0.0
2018-Apr-10 20:28S 32°55' E 151°46'0 0.0
2018-Apr-10 19:58S 32°55' E 151°46'0 0.0
2018-Apr-10 19:25S 32°55' E 151°46'0 0.0
2018-Apr-10 18:49S 32°55' E 151°46'0 0.0
2018-Apr-10 18:25S 32°55' E 151°46'0 0.0
2018-Apr-10 17:58S 32°55' E 151°46'0 0.0
2018-Apr-10 17:25S 32°55' E 151°46'0 0.0
2018-Apr-10 16:55S 32°55' E 151°46'0 0.0
2018-Apr-10 16:28S 32°55' E 151°46'0 0.0
2018-Apr-10 15:58S 32°55' E 151°46'0 0.0
2018-Apr-10 15:19S 32°55' E 151°46'0 0.0
2018-Apr-10 14:55S 32°55' E 151°46'0 0.0
2018-Apr-10 14:22S 32°55' E 151°46'0 0.0
2018-Apr-10 13:58S 32°55' E 151°46'0 0.0
2018-Apr-10 13:25S 32°55' E 151°46'0 0.0
2018-Apr-10 12:55S 32°55' E 151°46'0 0.0
2018-Apr-10 12:25S 32°55' E 151°46'0 0.0
2018-Apr-10 11:55S 32°55' E 151°46'0 0.0
2018-Apr-10 11:25S 32°55' E 151°46'0 0.0
2018-Apr-10 10:55S 32°55' E 151°46'0 0.0
2018-Apr-10 10:25S 32°55' E 151°46'0 0.0
2018-Apr-10 09:58S 32°55' E 151°46'0 0.0
2018-Apr-10 09:19S 32°55' E 151°46'0 0.0
2018-Apr-10 08:55S 32°55' E 151°46'0 0.0
2018-Apr-10 08:25S 32°55' E 151°46'0 0.0
2018-Apr-10 07:55S 32°55' E 151°46'0 0.0
2018-Apr-10 07:25S 32°55' E 151°46'0 0.0
2018-Apr-10 06:58S 32°55' E 151°46'0 0.0
2018-Apr-10 06:25S 32°55' E 151°46'0 0.0
2018-Apr-10 05:58S 32°55' E 151°46'0 0.0
2018-Apr-10 05:25S 32°55' E 151°46'0 0.0
2018-Apr-10 04:55S 32°55' E 151°46'0 0.0
2018-Apr-10 04:25S 32°55' E 151°46'0 0.0
2018-Apr-10 03:49S 32°55' E 151°46'0 0.0
2018-Apr-10 03:25S 32°55' E 151°46'0 0.0
2018-Apr-10 02:58S 32°55' E 151°46'0 0.0
2018-Apr-10 02:25S 32°55' E 151°46'0 0.0
2018-Apr-10 01:55S 32°55' E 151°46'0 0.0
2018-Apr-10 01:25S 32°55' E 151°46'0 0.0
2018-Apr-10 00:58S 32°55' E 151°46'0 0.0
2018-Apr-10 00:28S 32°55' E 151°46'0 0.0
2018-Apr-09 23:55S 32°55' E 151°46'0 0.0
2018-Apr-09 23:25S 32°55' E 151°46'0 0.0
2018-Apr-09 22:55S 32°55' E 151°46'0 0.0
2018-Apr-09 22:28S 32°55' E 151°46'0 0.0
2018-Apr-09 21:55S 32°55' E 151°46'0 0.0
2018-Apr-09 21:28S 32°55' E 151°46'0 0.0
2018-Apr-09 20:52S 32°55' E 151°46'0 0.0
2018-Apr-09 20:13S 32°55' E 151°46'0 0.0
2018-Apr-09 19:58S 32°55' E 151°46'0 0.0
2018-Apr-09 19:28S 32°55' E 151°46'0 0.0
2018-Apr-09 18:58S 32°55' E 151°46'0 0.0
2018-Apr-09 18:25S 32°55' E 151°46'0 0.0
2018-Apr-09 17:55S 32°55' E 151°46'0 0.0
2018-Apr-09 17:28S 32°55' E 151°46'0 0.0
2018-Apr-09 16:55S 32°55' E 151°46'0 0.0
2018-Apr-09 16:25S 32°55' E 151°46'0 0.0
2018-Apr-09 15:55S 32°55' E 151°46'0 0.0
2018-Apr-09 15:28S 32°55' E 151°46'0 0.0
2018-Apr-09 14:58S 32°55' E 151°46'0 0.0
2018-Apr-09 14:25S 32°55' E 151°46'0 0.0
2018-Apr-09 13:58S 32°55' E 151°46'0 0.0
2018-Apr-09 13:25S 32°55' E 151°46'0 0.0
2018-Apr-09 12:49S 32°55' E 151°46'0 0.0
2018-Apr-09 12:25S 32°55' E 151°46'0 0.0
2018-Apr-09 11:58S 32°55' E 151°46'0 0.0
2018-Apr-09 11:25S 32°55' E 151°46'0 0.0
2018-Apr-09 10:58S 32°55' E 151°46'0 0.0
2018-Apr-09 10:25S 32°55' E 151°46'0 0.0
2018-Apr-09 09:52S 32°55' E 151°46'0 0.0
2018-Apr-09 09:28S 32°55' E 151°46'0 0.0
2018-Apr-09 08:58S 32°55' E 151°46'0 0.0
2018-Apr-09 08:25S 32°55' E 151°46'0 0.0
2018-Apr-09 07:55S 32°55' E 151°46'0 0.0
2018-Apr-09 07:28S 32°55' E 151°46'0 0.0
2018-Apr-09 06:55S 32°55' E 151°46'0 0.0
2018-Apr-09 06:25S 32°55' E 151°46'0 0.0
2018-Apr-09 05:55S 32°55' E 151°46'0 0.0
2018-Apr-09 05:25S 32°55' E 151°46'0 0.1
2018-Apr-09 04:58S 32°55' E 151°46'0 0.0
2018-Apr-09 04:28S 32°55' E 151°46'0 0.0
2018-Apr-09 03:58S 32°55' E 151°46'0 0.0
2018-Apr-09 03:28S 32°55' E 151°46'0 0.0
2018-Apr-09 02:55S 32°55' E 151°46'0 0.0
2018-Apr-09 02:28S 32°55' E 151°46'0 0.0
2018-Apr-09 01:55S 32°55' E 151°46'0 0.0
2018-Apr-09 01:28S 32°55' E 151°46'0 0.0
2018-Apr-09 00:58S 32°55' E 151°46'0 0.0
2018-Apr-09 00:28S 32°55' E 151°46'0 0.0
2018-Apr-08 23:58S 32°55' E 151°46'0 0.0
2018-Apr-08 23:25S 32°55' E 151°46'0 0.0
2018-Apr-08 22:55S 32°55' E 151°46'0 0.0
2018-Apr-08 22:28S 32°55' E 151°46'0 0.0
2018-Apr-08 21:55S 32°55' E 151°46'0 0.0
2018-Apr-08 21:28S 32°55' E 151°46'0 0.0
2018-Apr-08 20:55S 32°55' E 151°46'0 0.0
2018-Apr-08 20:28S 32°55' E 151°46'0 0.0
2018-Apr-08 19:58S 32°55' E 151°46'0 0.0
2018-Apr-08 19:22S 32°55' E 151°46'0 0.0
2018-Apr-08 18:55S 32°55' E 151°46'0 0.0
2018-Apr-08 18:25S 32°55' E 151°46'0 0.0
2018-Apr-08 17:58S 32°55' E 151°46'0 0.0
2018-Apr-08 17:25S 32°55' E 151°46'0 0.0
2018-Apr-08 16:55S 32°55' E 151°46'0 0.0
2018-Apr-08 16:25S 32°55' E 151°46'0 0.0
2018-Apr-08 15:55S 32°55' E 151°46'0 0.0
2018-Apr-08 15:28S 32°55' E 151°46'0 0.0
2018-Apr-08 14:55S 32°55' E 151°46'0 0.0
2018-Apr-08 14:28S 32°55' E 151°46'0 0.0
2018-Apr-08 13:58S 32°55' E 151°46'0 0.0
2018-Apr-08 13:28S 32°55' E 151°46'0 0.0
2018-Apr-08 12:58S 32°55' E 151°46'0 0.0
2018-Apr-08 12:28S 32°55' E 151°46'0 0.0
2018-Apr-08 11:55S 32°55' E 151°46'0 0.0
2018-Apr-08 11:28S 32°55' E 151°46'0 0.0
2018-Apr-08 10:58S 32°55' E 151°46'0 0.0
2018-Apr-08 10:28S 32°55' E 151°46'0 0.0
2018-Apr-08 09:58S 32°55' E 151°46'0 0.0
2018-Apr-08 09:25S 32°55' E 151°46'0 0.0
2018-Apr-08 08:58S 32°55' E 151°46'0 0.0
2018-Apr-08 08:28S 32°55' E 151°46'0 0.0
2018-Apr-08 07:55S 32°55' E 151°46'0 0.0
2018-Apr-08 07:25S 32°55' E 151°46'0 0.0
2018-Apr-08 06:58S 32°55' E 151°46'0 0.0
2018-Apr-08 06:25S 32°55' E 151°46'0 0.0
2018-Apr-08 05:37S 32°55' E 151°46'0 0.0
2018-Apr-08 05:28S 32°55' E 151°46'0 0.0
2018-Apr-08 04:58S 32°55' E 151°46'0 0.0
2018-Apr-08 04:28S 32°55' E 151°46'0 0.0
2018-Apr-08 03:55S 32°55' E 151°46'0 0.0
2018-Apr-08 03:25S 32°55' E 151°46'0 0.0
2018-Apr-08 02:58S 32°55' E 151°46'0 0.0
2018-Apr-08 02:25S 32°55' E 151°46'0 0.0
2018-Apr-08 01:52S 32°55' E 151°46'0 0.0
2018-Apr-08 01:25S 32°55' E 151°46'0 0.0
2018-Apr-08 00:55S 32°55' E 151°46'0 0.0
2018-Apr-08 00:25S 32°55' E 151°46'0 0.0
2018-Apr-07 23:55S 32°55' E 151°46'0 0.0
2018-Apr-07 23:28S 32°55' E 151°46'0 0.0
2018-Apr-07 22:58S 32°55' E 151°46'0 0.0
2018-Apr-07 22:25S 32°55' E 151°46'0 0.0
2018-Apr-07 21:58S 32°55' E 151°46'0 0.0
2018-Apr-07 21:19S 32°55' E 151°46'0 0.0
2018-Apr-07 20:58S 32°55' E 151°46'0 0.0
2018-Apr-07 20:16S 32°55' E 151°46'0 0.0
2018-Apr-07 19:55S 32°55' E 151°46'0 0.0
2018-Apr-07 19:28S 32°55' E 151°46'0 0.0
2018-Apr-07 18:58S 32°55' E 151°46'0 0.0
2018-Apr-07 18:25S 32°55' E 151°46'0 0.0
2018-Apr-07 17:58S 32°55' E 151°46'0 0.0
2018-Apr-07 17:25S 32°55' E 151°46'0 0.0
2018-Apr-07 16:55S 32°55' E 151°46'0 0.0
2018-Apr-07 16:25S 32°55' E 151°46'0 0.0
2018-Apr-07 15:58S 32°55' E 151°46'0 0.0
2018-Apr-07 15:28S 32°55' E 151°46'0 0.0
2018-Apr-07 14:58S 32°55' E 151°46'0 0.0
2018-Apr-07 14:25S 32°55' E 151°46'0 0.0
2018-Apr-07 13:55S 32°55' E 151°46'0 0.0
2018-Apr-07 13:28S 32°55' E 151°46'0 0.0
2018-Apr-07 12:55S 32°55' E 151°46'0 0.0
2018-Apr-07 12:28S 32°55' E 151°46'0 0.0
2018-Apr-07 11:58S 32°55' E 151°46'0 0.0
2018-Apr-07 11:19S 32°55' E 151°46'  
Track history (hours):
 
Tides and Currents Weather Stations Pressure Air Temp Water Temp Dewpoint Dewpoint Depression Visibility Wind Speed Wind Dir Waves Ship Positions

Radiance Of The Seas

Operator: Royal Caribbean Cruises Ltd

Last reported at 2018-Apr-17 11:17 UTC. Time now 2018-Apr-20 14:04 UTC.
Position S 34°00' E 151°50'.

Type: Passenger vessel. MMSI: 311319000.

Date/timePositionNaut miles runAvg speedWind from/ knotsBaromVisibWave heightAir tempDewpointWater temp
2018-Apr-17 11:17S 34°00' E 151°50'518.4
2018-Apr-17 11:00S 33°59' E 151°45'918.4
2018-Apr-17 10:30S 33°55' E 151°34'918.4
2018-Apr-17 10:00S 33°52' E 151°24'612.2
2018-Apr-17 09:30S 33°50' E 151°17'4 7.8
2018-Apr-17 09:00S 33°51' E 151°13'0 0.0
2018-Apr-16 20:12S 33°52' E 151°13'0 1.2
2018-Apr-16 20:00S 33°51' E 151°13'4 7.7
2018-Apr-16 19:31S 33°50' E 151°17'612.2
2018-Apr-16 19:00S 33°50' E 151°24'4 7.2
2018-Apr-16 18:30S 33°51' E 151°28'4 7.2
2018-Apr-16 18:00S 33°51' E 151°33'4 6.9
2018-Apr-16 17:30S 33°52' E 151°37'4 7.2
2018-Apr-16 17:00S 33°52' E 151°41'4 7.9
2018-Apr-16 16:30S 33°53' E 151°46'3 6.4
2018-Apr-16 16:00S 33°51' E 151°48'3 6.9
2018-Apr-16 15:30S 33°47' E 151°49'3 6.3
2018-Apr-16 15:00S 33°44' E 151°50'3 6.5
2018-Apr-16 14:30S 33°41' E 151°51'4 6.9
2018-Apr-16 13:57S 33°37' E 151°52'3 7.1
2018-Apr-16 13:30S 33°34' E 151°53'4 7.0
2018-Apr-16 13:00S 33°31' E 151°54'15 6.6
2018-Apr-16 10:43S 33°19' E 151°44'4 0.3
2018-Apr-15 19:12S 33°17' E 151°40'0 0.3
2018-Apr-15 19:00S 33°17' E 151°40'0 0.1
2018-Apr-15 18:30S 33°17' E 151°40'0 0.0
2018-Apr-15 17:45S 33°17' E 151°40'12 0.6
2018-Apr-14 20:28S 33°15' E 151°54'43 7.6
2018-Apr-14 14:45S 33°57' E 152°06'622.4
2018-Apr-14 14:29S 33°51' E 152°05'3014.8
2018-Apr-14 12:26S 34°16' E 151°46'921.3
2018-Apr-14 12:00S 34°07' E 151°43'1223.1
2018-Apr-14 11:30S 33°56' E 151°43'1223.4
2018-Apr-14 11:01S 33°44' E 151°43'612.4
2018-Apr-14 10:30S 33°38' E 151°44'1622.9
2018-Apr-14 09:47S 33°23' E 151°51'518.4
2018-Apr-14 09:30S 33°18' E 151°53'510.0
2018-Apr-14 09:00S 33°13' E 151°56'5 9.6
2018-Apr-14 08:30S 33°09' E 151°58'4 7.6
2018-Apr-14 08:00S 33°05' E 151°56'12 9.1
2018-Apr-14 06:43S 32°55' E 151°49'2 7.5
2018-Apr-14 06:29S 32°55' E 151°47'1 1.3
2018-Apr-14 05:58S 32°55' E 151°46'0 0.0
2018-Apr-14 05:25S 32°55' E 151°46'0 0.0
2018-Apr-14 04:58S 32°55' E 151°46'0 0.0
2018-Apr-14 04:28S 32°55' E 151°46'0 0.0
2018-Apr-14 03:58S 32°55' E 151°46'0 0.0
2018-Apr-14 03:28S 32°55' E 151°46'0 0.0
2018-Apr-14 02:55S 32°55' E 151°46'0 0.0
2018-Apr-14 02:28S 32°55' E 151°46'0 0.0
2018-Apr-14 01:58S 32°55' E 151°46'0 0.0
2018-Apr-14 01:28S 32°55' E 151°46'0 0.0
2018-Apr-14 00:58S 32°55' E 151°46'0 0.0
2018-Apr-14 00:28S 32°55' E 151°46'0 0.0
2018-Apr-13 23:58S 32°55' E 151°46'0 0.0
2018-Apr-13 23:28S 32°55' E 151°46'0 0.0
2018-Apr-13 22:58S 32°55' E 151°46'0 0.0
2018-Apr-13 22:25S 32°55' E 151°46'0 0.0
2018-Apr-13 21:58S 32°55' E 151°46'0 0.0
2018-Apr-13 21:28S 32°55' E 151°46'0 0.0
2018-Apr-13 20:58S 32°55' E 151°46'0 0.0
2018-Apr-13 20:28S 32°55' E 151°46'0 0.0
2018-Apr-13 19:58S 32°55' E 151°46'0 0.0
2018-Apr-13 19:28S 32°55' E 151°46'0 0.0
2018-Apr-13 18:58S 32°55' E 151°46'0 0.0
2018-Apr-13 18:28S 32°55' E 151°46'0 0.0
2018-Apr-13 17:55S 32°55' E 151°46'0 0.0
2018-Apr-13 17:28S 32°55' E 151°46'0 0.0
2018-Apr-13 16:58S 32°55' E 151°46'0 0.0
2018-Apr-13 16:28S 32°55' E 151°46'0 0.0
2018-Apr-13 15:58S 32°55' E 151°46'0 0.0
2018-Apr-13 15:28S 32°55' E 151°46'0 0.0
2018-Apr-13 14:58S 32°55' E 151°46'0 0.0
2018-Apr-13 14:28S 32°55' E 151°46'0 0.0
2018-Apr-13 13:58S 32°55' E 151°46'0 0.0
2018-Apr-13 13:28S 32°55' E 151°46'0 0.0
2018-Apr-13 12:58S 32°55' E 151°46'0 0.0
2018-Apr-13 12:28S 32°55' E 151°46'0 0.0
2018-Apr-13 11:58S 32°55' E 151°46'0 0.0
2018-Apr-13 11:28S 32°55' E 151°46'0 0.0
2018-Apr-13 10:58S 32°55' E 151°46'0 0.0
2018-Apr-13 10:28S 32°55' E 151°46'0 0.0
2018-Apr-13 09:58S 32°55' E 151°46'0 0.0
2018-Apr-13 09:25S 32°55' E 151°46'0 0.0
2018-Apr-13 08:58S 32°55' E 151°46'0 0.0
2018-Apr-13 08:28S 32°55' E 151°46'0 0.0
2018-Apr-13 07:58S 32°55' E 151°46'0 0.0
2018-Apr-13 07:28S 32°55' E 151°46'0 0.0
2018-Apr-13 06:58S 32°55' E 151°46'0 0.0
2018-Apr-13 06:28S 32°55' E 151°46'0 0.0
2018-Apr-13 05:58S 32°55' E 151°46'0 0.0
2018-Apr-13 05:28S 32°55' E 151°46'0 0.0
2018-Apr-13 04:58S 32°55' E 151°46'0 0.0
2018-Apr-13 04:28S 32°55' E 151°46'0 0.0
2018-Apr-13 03:58S 32°55' E 151°46'0 0.0
2018-Apr-13 03:28S 32°55' E 151°46'0 0.0
2018-Apr-13 02:58S 32°55' E 151°46'0 0.0
2018-Apr-13 02:28S 32°55' E 151°46'0 0.0
2018-Apr-13 01:58S 32°55' E 151°46'0 0.0
2018-Apr-13 01:28S 32°55' E 151°46'0 0.0
2018-Apr-13 00:58S 32°55' E 151°46'0 0.0
2018-Apr-13 00:28S 32°55' E 151°46'0 0.0
2018-Apr-12 23:58S 32°55' E 151°46'0 0.0
2018-Apr-12 23:28S 32°55' E 151°46'0 0.0
2018-Apr-12 22:58S 32°55' E 151°46'0 0.0
2018-Apr-12 22:28S 32°55' E 151°46'0 0.0
2018-Apr-12 21:58S 32°55' E 151°46'0 0.0
2018-Apr-12 21:28S 32°55' E 151°46'0 0.0
2018-Apr-12 20:58S 32°55' E 151°46'0 0.0
2018-Apr-12 20:28S 32°55' E 151°46'0 0.0
2018-Apr-12 19:58S 32°55' E 151°46'0 0.0
2018-Apr-12 19:28S 32°55' E 151°46'0 0.0
2018-Apr-12 18:58S 32°55' E 151°46'0 0.0
2018-Apr-12 18:28S 32°55' E 151°46'0 0.0
2018-Apr-12 17:58S 32°55' E 151°46'0 0.0
2018-Apr-12 17:28S 32°55' E 151°46'0 0.0
2018-Apr-12 16:58S 32°55' E 151°46'0 0.0
2018-Apr-12 16:25S 32°55' E 151°46'0 0.0
2018-Apr-12 15:58S 32°55' E 151°46'0 0.0
2018-Apr-12 15:28S 32°55' E 151°46'0 0.0
2018-Apr-12 14:58S 32°55' E 151°46'0 0.0
2018-Apr-12 14:28S 32°55' E 151°46'0 0.0
2018-Apr-12 13:58S 32°55' E 151°46'0 0.0
2018-Apr-12 13:28S 32°55' E 151°46'0 0.0
2018-Apr-12 12:55S 32°55' E 151°46'0 0.0
2018-Apr-12 12:28S 32°55' E 151°46'0 0.0
2018-Apr-12 11:58S 32°55' E 151°46'0 0.0
2018-Apr-12 11:28S 32°55' E 151°46'0 0.0
2018-Apr-12 10:58S 32°55' E 151°46'0 0.0
2018-Apr-12 10:28S 32°55' E 151°46'0 0.0
2018-Apr-12 09:58S 32°55' E 151°46'0 0.0
2018-Apr-12 09:28S 32°55' E 151°46'0 0.0
2018-Apr-12 08:58S 32°55' E 151°46'0 0.0
2018-Apr-12 08:28S 32°55' E 151°46'0 0.0
2018-Apr-12 07:58S 32°55' E 151°46'0 0.0
2018-Apr-12 07:28S 32°55' E 151°46'0 0.0
2018-Apr-12 06:58S 32°55' E 151°46'0 0.0
2018-Apr-12 06:28S 32°55' E 151°46'0 0.0
2018-Apr-12 05:58S 32°55' E 151°46'0 0.0
2018-Apr-12 05:28S 32°55' E 151°46'0 0.0
2018-Apr-12 04:58S 32°55' E 151°46'0 0.0
2018-Apr-12 04:28S 32°55' E 151°46'0 0.0
2018-Apr-12 03:55S 32°55' E 151°46'0 0.0
2018-Apr-12 03:28S 32°55' E 151°46'0 0.0
2018-Apr-12 02:58S 32°55' E 151°46'0 0.0
2018-Apr-12 02:28S 32°55' E 151°46'0 0.0
2018-Apr-12 01:58S 32°55' E 151°46'0 0.0
2018-Apr-12 01:28S 32°55' E 151°46'0 0.0
2018-Apr-12 00:55S 32°55' E 151°46'0 0.0
2018-Apr-12 00:28S 32°55' E 151°46'0 0.0
2018-Apr-11 23:58S 32°55' E 151°46'0 0.0
2018-Apr-11 23:28S 32°55' E 151°46'0 0.0
2018-Apr-11 22:58S 32°55' E 151°46'0 0.0
2018-Apr-11 22:25S 32°55' E 151°46'0 0.0
2018-Apr-11 21:58S 32°55' E 151°46'0 0.0
2018-Apr-11 21:28S 32°55' E 151°46'0 0.0
2018-Apr-11 20:58S 32°55' E 151°46'0 0.0
2018-Apr-11 20:28S 32°55' E 151°46'0 0.0
2018-Apr-11 19:58S 32°55' E 151°46'0 0.0
2018-Apr-11 19:28S 32°55' E 151°46'0 0.0
2018-Apr-11 18:58S 32°55' E 151°46'0 0.0
2018-Apr-11 18:28S 32°55' E 151°46'0 0.0
2018-Apr-11 17:58S 32°55' E 151°46'0 0.0
2018-Apr-11 17:28S 32°55' E 151°46'0 0.0
2018-Apr-11 16:58S 32°55' E 151°46'0 0.0
2018-Apr-11 16:28S 32°55' E 151°46'0 0.0
2018-Apr-11 15:58S 32°55' E 151°46'0 0.0
2018-Apr-11 15:28S 32°55' E 151°46'0 0.0
2018-Apr-11 14:58S 32°55' E 151°46'0 0.0
2018-Apr-11 14:28S 32°55' E 151°46'0 0.0
2018-Apr-11 13:55S 32°55' E 151°46'0 0.0
2018-Apr-11 13:28S 32°55' E 151°46'0 0.0
2018-Apr-11 12:58S 32°55' E 151°46'0 0.0
2018-Apr-11 12:28S 32°55' E 151°46'0 0.0
2018-Apr-11 11:58S 32°55' E 151°46'0 0.0
2018-Apr-11 11:28S 32°55' E 151°46'0 0.0
2018-Apr-11 10:58S 32°55' E 151°46'0 0.0
2018-Apr-11 10:28S 32°55' E 151°46'0 0.0
2018-Apr-11 09:58S 32°55' E 151°46'0 0.0
2018-Apr-11 09:28S 32°55' E 151°46'0 0.0
2018-Apr-11 08:58S 32°55' E 151°46'0 0.0
2018-Apr-11 08:25S 32°55' E 151°46'0 0.0
2018-Apr-11 07:46S 32°55' E 151°46'0 0.0
2018-Apr-11 07:25S 32°55' E 151°46'0 0.0
2018-Apr-11 06:55S 32°55' E 151°46'0 0.0
2018-Apr-11 06:25S 32°55' E 151°46'0 0.0
2018-Apr-11 05:55S 32°55' E 151°46'0 0.0
2018-Apr-11 05:19S 32°55' E 151°46'0 0.0
2018-Apr-11 04:58S 32°55' E 151°46'0 0.0
2018-Apr-11 04:28S 32°55' E 151°46'0 0.0
2018-Apr-11 03:55S 32°55' E 151°46'0 0.0
2018-Apr-11 03:25S 32°55' E 151°46'0 0.0
2018-Apr-11 02:58S 32°55' E 151°46'0 0.0
2018-Apr-11 02:25S 32°55' E 151°46'0 0.0
2018-Apr-11 01:58S 32°55' E 151°46'0 0.0
2018-Apr-11 01:25S 32°55' E 151°46'0 0.0
2018-Apr-11 00:55S 32°55' E 151°46'0 0.0
2018-Apr-11 00:25S 32°55' E 151°46'0 0.0
2018-Apr-10 23:55S 32°55' E 151°46'0 0.0
2018-Apr-10 23:25S 32°55' E 151°46'0 0.0
2018-Apr-10 22:55S 32°55' E 151°46'0 0.0
2018-Apr-10 22:16S 32°55' E 151°46'0 0.0
2018-Apr-10 21:58S 32°55' E 151°46'0 0.0
2018-Apr-10 21:25S 32°55' E 151°46'0 0.0
2018-Apr-10 20:55S 32°55' E 151°46'0 0.0
2018-Apr-10 20:28S 32°55' E 151°46'0 0.0
2018-Apr-10 19:58S 32°55' E 151°46'0 0.0
2018-Apr-10 19:25S 32°55' E 151°46'0 0.0
2018-Apr-10 18:49S 32°55' E 151°46'0 0.0
2018-Apr-10 18:25S 32°55' E 151°46'0 0.0
2018-Apr-10 17:58S 32°55' E 151°46'0 0.0
2018-Apr-10 17:25S 32°55' E 151°46'0 0.0
2018-Apr-10 16:55S 32°55' E 151°46'0 0.0
2018-Apr-10 16:28S 32°55' E 151°46'0 0.0
2018-Apr-10 15:58S 32°55' E 151°46'0 0.0
2018-Apr-10 15:19S 32°55' E 151°46'0 0.0
2018-Apr-10 14:55S 32°55' E 151°46'0 0.0
2018-Apr-10 14:22S 32°55' E 151°46'0 0.0
2018-Apr-10 13:58S 32°55' E 151°46'0 0.0
2018-Apr-10 13:25S 32°55' E 151°46'0 0.0
2018-Apr-10 12:55S 32°55' E 151°46'0 0.0
2018-Apr-10 12:25S 32°55' E 151°46'0 0.0
2018-Apr-10 11:55S 32°55' E 151°46'0 0.0
2018-Apr-10 11:25S 32°55' E 151°46'0 0.0
2018-Apr-10 10:55S 32°55' E 151°46'0 0.0
2018-Apr-10 10:25S 32°55' E 151°46'0 0.0
2018-Apr-10 09:58S 32°55' E 151°46'0 0.0
2018-Apr-10 09:19S 32°55' E 151°46'0 0.0
2018-Apr-10 08:55S 32°55' E 151°46'0 0.0
2018-Apr-10 08:25S 32°55' E 151°46'0 0.0
2018-Apr-10 07:55S 32°55' E 151°46'0 0.0
2018-Apr-10 07:25S 32°55' E 151°46'0 0.0
2018-Apr-10 06:58S 32°55' E 151°46'0 0.0
2018-Apr-10 06:25S 32°55' E 151°46'0 0.0
2018-Apr-10 05:58S 32°55' E 151°46'0 0.0
2018-Apr-10 05:25S 32°55' E 151°46'0 0.0
2018-Apr-10 04:55S 32°55' E 151°46'0 0.0
2018-Apr-10 04:25S 32°55' E 151°46'0 0.0
2018-Apr-10 03:49S 32°55' E 151°46'0 0.0
2018-Apr-10 03:25S 32°55' E 151°46'0 0.0
2018-Apr-10 02:58S 32°55' E 151°46'0 0.0
2018-Apr-10 02:25S 32°55' E 151°46'0 0.0
2018-Apr-10 01:55S 32°55' E 151°46'0 0.0
2018-Apr-10 01:25S 32°55' E 151°46'0 0.0
2018-Apr-10 00:58S 32°55' E 151°46'0 0.0
2018-Apr-10 00:28S 32°55' E 151°46'0 0.0
2018-Apr-09 23:55S 32°55' E 151°46'0 0.0
2018-Apr-09 23:25S 32°55' E 151°46'0 0.0
2018-Apr-09 22:55S 32°55' E 151°46'0 0.0
2018-Apr-09 22:28S 32°55' E 151°46'0 0.0
2018-Apr-09 21:55S 32°55' E 151°46'0 0.0
2018-Apr-09 21:28S 32°55' E 151°46'0 0.0
2018-Apr-09 20:52S 32°55' E 151°46'0 0.0
2018-Apr-09 20:13S 32°55' E 151°46'0 0.0
2018-Apr-09 19:58S 32°55' E 151°46'0 0.0
2018-Apr-09 19:28S 32°55' E 151°46'0 0.0
2018-Apr-09 18:58S 32°55' E 151°46'0 0.0
2018-Apr-09 18:25S 32°55' E 151°46'0 0.0
2018-Apr-09 17:55S 32°55' E 151°46'0 0.0
2018-Apr-09 17:28S 32°55' E 151°46'0 0.0
2018-Apr-09 16:55S 32°55' E 151°46'0 0.0
2018-Apr-09 16:25S 32°55' E 151°46'0 0.0
2018-Apr-09 15:55S 32°55' E 151°46'0 0.0
2018-Apr-09 15:28S 32°55' E 151°46'0 0.0
2018-Apr-09 14:58S 32°55' E 151°46'0 0.0
2018-Apr-09 14:25S 32°55' E 151°46'0 0.0
2018-Apr-09 13:58S 32°55' E 151°46'0 0.0
2018-Apr-09 13:25S 32°55' E 151°46'0 0.0
2018-Apr-09 12:49S 32°55' E 151°46'0 0.0
2018-Apr-09 12:25S 32°55' E 151°46'0 0.0
2018-Apr-09 11:58S 32°55' E 151°46'0 0.0
2018-Apr-09 11:25S 32°55' E 151°46'0 0.0
2018-Apr-09 10:58S 32°55' E 151°46'0 0.0
2018-Apr-09 10:25S 32°55' E 151°46'0 0.0
2018-Apr-09 09:52S 32°55' E 151°46'0 0.0
2018-Apr-09 09:28S 32°55' E 151°46'0 0.0
2018-Apr-09 08:58S 32°55' E 151°46'0 0.0
2018-Apr-09 08:25S 32°55' E 151°46'0 0.0
2018-Apr-09 07:55S 32°55' E 151°46'0 0.0
2018-Apr-09 07:28S 32°55' E 151°46'0 0.0
2018-Apr-09 06:55S 32°55' E 151°46'0 0.0
2018-Apr-09 06:25S 32°55' E 151°46'0 0.0
2018-Apr-09 05:55S 32°55' E 151°46'0 0.0
2018-Apr-09 05:25S 32°55' E 151°46'0 0.1
2018-Apr-09 04:58S 32°55' E 151°46'0 0.0
2018-Apr-09 04:28S 32°55' E 151°46'0 0.0
2018-Apr-09 03:58S 32°55' E 151°46'0 0.0
2018-Apr-09 03:28S 32°55' E 151°46'0 0.0
2018-Apr-09 02:55S 32°55' E 151°46'0 0.0
2018-Apr-09 02:28S 32°55' E 151°46'0 0.0
2018-Apr-09 01:55S 32°55' E 151°46'0 0.0
2018-Apr-09 01:28S 32°55' E 151°46'0 0.0
2018-Apr-09 00:58S 32°55' E 151°46'0 0.0
2018-Apr-09 00:28S 32°55' E 151°46'0 0.0
2018-Apr-08 23:58S 32°55' E 151°46'0 0.0
2018-Apr-08 23:25S 32°55' E 151°46'0 0.0
2018-Apr-08 22:55S 32°55' E 151°46'0 0.0
2018-Apr-08 22:28S 32°55' E 151°46'0 0.0
2018-Apr-08 21:55S 32°55' E 151°46'0 0.0
2018-Apr-08 21:28S 32°55' E 151°46'0 0.0
2018-Apr-08 20:55S 32°55' E 151°46'0 0.0
2018-Apr-08 20:28S 32°55' E 151°46'0 0.0
2018-Apr-08 19:58S 32°55' E 151°46'0 0.0
2018-Apr-08 19:22S 32°55' E 151°46'0 0.0
2018-Apr-08 18:55S 32°55' E 151°46'0 0.0
2018-Apr-08 18:25S 32°55' E 151°46'0 0.0
2018-Apr-08 17:58S 32°55' E 151°46'0 0.0
2018-Apr-08 17:25S 32°55' E 151°46'0 0.0
2018-Apr-08 16:55S 32°55' E 151°46'0 0.0
2018-Apr-08 16:25S 32°55' E 151°46'0 0.0
2018-Apr-08 15:55S 32°55' E 151°46'0 0.0
2018-Apr-08 15:28S 32°55' E 151°46'0 0.0
2018-Apr-08 14:55S 32°55' E 151°46'0 0.0
2018-Apr-08 14:28S 32°55' E 151°46'0 0.0
2018-Apr-08 13:58S 32°55' E 151°46'0 0.0
2018-Apr-08 13:28S 32°55' E 151°46'0 0.0
2018-Apr-08 12:58S 32°55' E 151°46'0 0.0
2018-Apr-08 12:28S 32°55' E 151°46'0 0.0
2018-Apr-08 11:55S 32°55' E 151°46'0 0.0
2018-Apr-08 11:28S 32°55' E 151°46'0 0.0
2018-Apr-08 10:58S 32°55' E 151°46'0 0.0
2018-Apr-08 10:28S 32°55' E 151°46'0 0.0
2018-Apr-08 09:58S 32°55' E 151°46'0 0.0
2018-Apr-08 09:25S 32°55' E 151°46'0 0.0
2018-Apr-08 08:58S 32°55' E 151°46'0 0.0
2018-Apr-08 08:28S 32°55' E 151°46'0 0.0
2018-Apr-08 07:55S 32°55' E 151°46'0 0.0
2018-Apr-08 07:25S 32°55' E 151°46'0 0.0
2018-Apr-08 06:58S 32°55' E 151°46'0 0.0
2018-Apr-08 06:25S 32°55' E 151°46'0 0.0
2018-Apr-08 05:37S 32°55' E 151°46'0 0.0
2018-Apr-08 05:28S 32°55' E 151°46'0 0.0
2018-Apr-08 04:58S 32°55' E 151°46'0 0.0
2018-Apr-08 04:28S 32°55' E 151°46'0 0.0
2018-Apr-08 03:55S 32°55' E 151°46'0 0.0
2018-Apr-08 03:25S 32°55' E 151°46'0 0.0
2018-Apr-08 02:58S 32°55' E 151°46'0 0.0
2018-Apr-08 02:25S 32°55' E 151°46'0 0.0
2018-Apr-08 01:52S 32°55' E 151°46'0 0.0
2018-Apr-08 01:25S 32°55' E 151°46'0 0.0
2018-Apr-08 00:55S 32°55' E 151°46'0 0.0
2018-Apr-08 00:25S 32°55' E 151°46'0 0.0
2018-Apr-07 23:55S 32°55' E 151°46'0 0.0
2018-Apr-07 23:28S 32°55' E 151°46'0 0.0
2018-Apr-07 22:58S 32°55' E 151°46'0 0.0
2018-Apr-07 22:25S 32°55' E 151°46'0 0.0
2018-Apr-07 21:58S 32°55' E 151°46'0 0.0
2018-Apr-07 21:19S 32°55' E 151°46'0 0.0
2018-Apr-07 20:58S 32°55' E 151°46'0 0.0
2018-Apr-07 20:16S 32°55' E 151°46'0 0.0
2018-Apr-07 19:55S 32°55' E 151°46'0 0.0
2018-Apr-07 19:28S 32°55' E 151°46'0 0.0
2018-Apr-07 18:58S 32°55' E 151°46'0 0.0
2018-Apr-07 18:25S 32°55' E 151°46'0 0.0
2018-Apr-07 17:58S 32°55' E 151°46'0 0.0
2018-Apr-07 17:25S 32°55' E 151°46'0 0.0
2018-Apr-07 16:55S 32°55' E 151°46'0 0.0
2018-Apr-07 16:25S 32°55' E 151°46'0 0.0
2018-Apr-07 15:58S 32°55' E 151°46'0 0.0
2018-Apr-07 15:28S 32°55' E 151°46'0 0.0
2018-Apr-07 14:58S 32°55' E 151°46'0 0.0
2018-Apr-07 14:25S 32°55' E 151°46'0 0.0
2018-Apr-07 13:55S 32°55' E 151°46'0 0.0
2018-Apr-07 13:28S 32°55' E 151°46'0 0.0
2018-Apr-07 12:55S 32°55' E 151°46'0 0.0
2018-Apr-07 12:28S 32°55' E 151°46'0 0.0
2018-Apr-07 11:58S 32°55' E 151°46'0 0.0
2018-Apr-07 11:19S 32°55' E 151°46'  

Dump ship's entire track history